Weather   Thornlie   Western Australia


Observations from 4/8/2020 4:30 pm back to 1/8/2020 04:29 pm half hourly.

 

Observations for the previous 72 hours
 
Date/Time
WST
 
Temp
°C
App
Temp
°C
Heat
Index
°C
Wind
Chill
°C
Dew
Point
°C
Rel
Hum
%
 
Dir
 
 
Spd
km/h
Wind
Gust
km/h
 
Spd
kts
 
Gust
kts
Press
MSL
hPa
Rain
Since 9am
mm
 
Solar
W/m2
 
UV
Index
4/04:30pm 16.4 16.4 16.4 9.6 64 1.7 7.0 1012.13 0.0 116 0.0
4/04:00pm 16.7 16.7 16.7 9.3 62 0.9 3.5 1011.92 0.0 281 0.0
4/03:30pm 16.6 16.6 16.6 8.6 59 2.6 7.8 1011.59 0.0 380 0.7
4/02:59pm 16.1 16.1 16.1 8.5 61 1.7 4.3 1011.42 0.0 325 1.0
4/02:30pm 15.3 15.3 15.3 8.7 65 2.6 6.1 1011.48 0.0 251 0.8
4/02:00pm 16.0 16.0 16.0 9.0 63 1.7 5.2 1011.31 0.0 311 1.0
4/01:29pm 14.7 14.7 14.7 8.8 68 2.6 7.0 1011.55 0.0 638 1.8
4/01:00pm 14.4 14.4 14.4 8.3 67 2.6 7.8 1011.72 0.0 195 2.1
4/12:30pm 14.5 14.5 14.5 8.9 69 1.7 6.1 1011.96 0.0 279 1.3
4/11:59am 13.8 13.8 13.8 8.7 71 2.6 7.8 1011.99 0.0 459 1.9
4/11:30am 12.7 12.7 12.7 8.4 75 2.6 7.0 1012.26 0.0 438 1.4
4/11:00am 12.8 12.8 12.6 8.7 76 1.7 6.1 1012.50 0.0 258 0.8
4/10:29am 11.6 11.6 11.6 8.0 79 1.7 5.2 1012.53 0.0 367 1.2
4/10:00am 11.1 11.1 11.1 8.2 82 2.6 6.1 1012.13 0.0 533 1.1
4/09:30am 10.1 10.1 10.1 7.5 84 1.7 6.1 1011.75 0.0 436 0.7
4/08:59am 9.2 9.2 9.2 7.6 90 1.7 3.5 1011.52 7.6 350 0.0
4/08:30am 8.1 8.1 7.7 7.0 93 0.9 4.3 1011.48 7.6 227 0.0
4/08:00am 6.9 6.9 6.9 6.0 94 0.9 3.5 1011.15 7.6 125 0.0
4/07:29am 5.9 5.9 5.9 5.1 94 0.9 1.7 1010.40 7.6 28 0.0
4/07:00am 5.9 5.9 5.9 5.0 94 0.9 1.7 1010.06 7.6 0 0.0
4/06:30am 5.9 5.9 5.9 5.0 94 0.0 0.9 1009.79 7.6 0 0.0
4/05:59am 6.2 6.2 6.2 5.1 93 0.9 1.7 1009.45 7.6 0 0.0
4/05:30am 6.5 6.5 5.9 5.6 94 0.9 3.5 1009.11 7.6 0 0.0
4/05:00am 6.6 6.6 6.6 5.7 94 0.9 3.5 1008.91 7.6 0 0.0
4/04:29am 6.8 6.8 6.8 5.8 93 0.0 3.5 1008.71 7.6 0 0.0
4/04:00am 7.1 7.1 7.1 6.2 94 0.9 4.3 1008.33 7.6 0 0.0
4/03:30am 6.7 6.7 6.7 5.8 94 0.0 0.9 1008.71 7.6 0 0.0
4/02:59am 6.6 6.6 6.6 5.4 92 0.0 0.9 1008.37 7.6 0 0.0
4/02:30am 7.2 7.2 7.2 6.0 92 0.0 0.9 1008.23 7.6 0 0.0
4/02:00am 7.9 7.9 7.9 6.7 92 0.0 0.9 1008.13 7.6 0 0.0
4/01:29am 8.1 8.1 8.1 7.0 93 0.9 2.6 1008.13 7.6 0 0.0
4/01:00am 7.9 7.9 7.9 6.7 92 0.0 1.7 1008.06 7.6 0 0.0
4/12:30am 7.9 7.9 7.9 6.6 91 0.9 1.7 1008.00 7.6 0 0.0
3/11:59pm 8.1 8.1 8.1 6.8 92 1.7 5.2 1007.62 7.6 0 0.0
3/11:30pm 8.1 8.1 8.1 6.7 91 0.0 0.9 1007.39 7.6 0 0.0
3/11:00pm 8.4 8.4 8.4 7.1 91 0.9 3.5 1007.25 7.6 0 0.0
3/10:29pm 8.7 8.7 8.7 7.3 91 0.9 3.5 1007.49 7.6 0 0.0
3/10:00pm 8.8 8.8 8.8 7.1 89 0.0 2.6 1007.52 7.6 0 0.0
3/09:30pm 9.4 9.4 9.4 7.9 90 0.0 1.7 1007.59 7.6 0 0.0
3/08:59pm 10.0 10.0 10.0 8.4 90 0.0 1.7 1007.66 7.6 0 0.0
3/08:30pm 10.1 10.1 10.1 8.5 90 0.9 2.6 1007.59 7.6 0 0.0
3/08:00pm 10.1 10.1 10.1 8.5 90 1.7 3.5 1007.28 7.6 0 0.0
3/07:29pm 10.4 10.4 10.4 8.9 90 1.7 5.2 1007.05 7.6 0 0.0
3/07:00pm 10.3 10.3 10.3 8.8 90 0.9 3.5 1006.78 7.6 0 0.0
3/06:30pm 10.2 10.2 10.2 8.7 90 0.9 5.2 1006.30 7.6 0 0.0
3/05:59pm 10.1 10.1 9.9 8.8 92 1.7 8.7 1005.42 7.6 0 0.0
3/05:30pm 10.2 10.2 10.2 8.9 92 1.7 7.8 1005.19 7.6 14 0.0
3/05:00pm 10.2 10.2 10.2 8.8 91 1.7 8.7 1005.56 7.6 26 0.0
 
Date/Time
WST
 
Temp
°C
App
Temp
°C
Heat
Index
°C
Wind
Chill
°C
Dew
Point
°C
Rel
Hum
%
 
Dir
 
 
Spd
km/h
Wind
Gust
km/h
 
Spd
kts
 
Gust
kts
Press
MSL
hPa
Rain
Since 9am
mm
 
Solar
W/m2
 
UV
Index
3/04:29pm 10.7 10.7 10.7 9.3 91 1.7 7.0 1005.76 7.6 46 0.0
3/04:00pm 10.7 10.7 10.7 9.5 92 1.7 7.0 1006.17 7.4 172 0.0
3/03:30pm 10.8 10.8 10.8 9.1 89 0.9 6.1 1006.71 6.6 28 0.0
3/02:59pm 11.3 11.3 10.9 9.9 91 0.9 6.1 1006.57 6.2 134 0.0
3/02:30pm 10.8 10.8 10.8 9.5 92 0.9 3.5 1006.84 6.2 155 0.0
3/02:00pm 10.9 10.9 10.9 9.7 92 0.9 4.3 1007.39 5.8 90 0.0
3/01:29pm 10.9 10.9 10.9 9.0 88 2.6 7.0 1008.03 4.4 42 0.0
3/01:00pm 11.8 11.8 11.8 8.1 78 2.6 7.8 1008.30 3.6 195 0.7
3/12:30pm 11.7 11.7 11.7 8.7 82 1.7 7.0 1008.71 3.6 436 1.4
3/11:59am 10.8 10.8 10.8 9.1 89 0.9 5.2 1008.91 3.6 287 1.0
3/11:30am 10.4 10.4 10.4 9.1 92 0.9 2.6 1009.86 3.6 271 0.9
3/11:00am 10.1 10.1 10.1 9.2 94 0.9 2.6 1010.37 3.6 227 0.7
3/10:29am 9.6 9.6 9.6 8.5 93 0.0 1.7 1010.77 3.4 160 0.0
3/10:00am 9.7 9.7 9.7 8.5 92 0.9 2.6 1011.01 2.6 54 0.0
3/09:30am 10.2 10.2 10.2 8.5 89 0.0 0.9 1010.94 0.0 11 0.0
3/08:59am 10.0 10.0 10.0 8.8 92 0.9 2.6 1010.33 7.6 482 0.0
3/08:30am 8.8 8.8 8.8 8.0 95 0.9 2.6 1010.43 7.6 230 0.0
3/08:00am 7.7 7.7 7.7 7.1 96 0.0 1.7 1010.54 7.6 116 0.0
3/07:29am 6.4 6.4 6.4 5.6 95 0.0 0.9 1010.74 7.4 25 0.0
3/07:00am 6.4 6.4 6.4 5.7 95 0.0 1.7 1010.50 7.4 0 0.0
3/06:30am 6.6 6.6 6.6 5.8 95 0.0 0.9 1010.23 7.4 0 0.0
3/05:59am 6.6 6.6 6.6 5.7 94 0.0 0.9 1010.37 7.4 0 0.0
3/05:30am 6.8 6.8 6.8 5.9 94 0.0 0.9 1010.54 7.4 0 0.0
3/05:00am 7.2 7.2 7.2 6.2 93 0.0 0.9 1010.60 7.4 0 0.0
3/04:29am 7.6 7.6 7.6 6.7 94 0.0 0.9 1010.98 7.4 0 0.0
3/04:00am 7.7 7.7 7.7 6.6 93 0.0 0.9 1010.91 7.4 0 0.0
3/03:30am 7.9 7.9 7.9 6.8 93 0.0 0.9 1011.35 7.4 0 0.0
3/02:59am 7.9 7.9 7.9 6.9 93 0.0 0.9 1011.75 7.4 0 0.0
3/02:30am 7.9 7.9 7.9 6.7 92 0.0 0.9 1011.79 7.4 0 0.0
3/02:00am 8.4 8.4 8.4 7.2 92 0.0 1.7 1011.89 7.4 0 0.0
3/01:29am 8.4 8.4 8.4 7.1 91 0.0 1.7 1012.43 7.4 0 0.0
3/01:00am 8.6 8.6 8.6 7.2 91 0.9 2.6 1013.08 7.4 0 0.0
3/12:30am 8.9 8.9 8.9 7.6 91 2.6 7.0 1013.72 7.4 0 0.0
2/11:59pm 9.2 9.2 9.2 7.8 91 0.9 5.2 1014.33 7.4 0 0.0
2/11:30pm 9.5 9.5 9.5 7.8 89 3.5 11.3 1014.46 7.4 0 0.0
2/11:00pm 10.1 10.1 10.1 8.8 92 3.5 8.7 1014.29 7.4 0 0.0
2/10:29pm 10.3 10.3 9.7 9.0 92 2.6 8.7 1014.36 7.4 0 0.0
2/10:00pm 10.7 10.7 9.9 9.5 92 3.5 12.2 1014.36 7.4 0 0.0
2/09:30pm 11.7 11.7 11.7 10.6 93 1.7 5.2 1014.19 7.2 0 0.0
2/09:00pm 12.0 12.0 12.0 10.9 93 0.9 2.6 1014.19 6.6 0 0.0
2/08:30pm 12.3 12.3 12.0 10.9 91 2.6 9.6 1014.29 5.8 0 0.0
2/08:00pm 13.1 13.1 13.1 11.3 89 0.0 2.6 1014.43 0.2 0 1.3
2/07:29pm 13.4 13.4 13.4 11.1 86 0.0 0.9 1014.29 0.2 0 0.0
2/07:00pm 13.2 13.2 13.2 10.5 84 0.9 4.3 1014.63 0.0 0 0.0
2/06:30pm 13.7 13.7 13.7 10.5 81 0.0 0.0 1014.77 0.0 0 0.0
2/06:00pm 14.9 14.9 14.9 11.3 79 0.0 0.0 1014.90 0.0 0 0.0
2/05:30pm 15.7 15.7 15.7 11.4 76 0.0 1.7 1015.07 0.0 14 0.0
2/05:00pm 15.7 15.7 15.7 11.5 76 0.0 1.7 1015.48 0.0 42 0.0
 
Date/Time
WST
 
Temp
°C
App
Temp
°C
Heat
Index
°C
Wind
Chill
°C
Dew
Point
°C
Rel
Hum
%
 
Dir
 
 
Spd
km/h
Wind
Gust
km/h
 
Spd
kts
 
Gust
kts
Press
MSL
hPa
Rain
Since 9am
mm
 
Solar
W/m2
 
UV
Index
2/04:29pm 15.8 15.8 15.8 11.2 74 0.9 2.6 1015.68 0.0 39 0.0
2/04:00pm 17.1 17.1 17.1 10.2 64 1.7 4.3 1015.92 0.0 25 0.0
2/03:30pm 17.2 17.2 17.2 10.1 63 1.7 6.1 1015.99 0.0 121 0.0
2/02:59pm 17.8 17.8 17.8 9.7 59 2.6 7.8 1016.19 0.0 543 1.0
2/02:30pm 19.0 19.0 19.0 9.8 55 0.9 4.3 1016.36 0.0 438 1.2
2/02:00pm 18.6 18.6 18.6 9.4 55 0.9 4.3 1016.73 0.0 578 1.6
2/01:29pm 18.1 18.1 18.1 8.9 55 1.7 6.1 1017.31 0.0 295 1.3
2/01:00pm 17.8 17.8 17.8 8.7 55 0.9 3.5 1017.88 0.0 679 2.2
2/12:30pm 16.8 16.8 16.8 8.8 59 1.7 4.3 1018.46 0.0 503 1.9
2/12:00pm 16.1 16.1 16.1 9.5 65 0.9 3.5 1019.20 0.0 517 1.8
2/11:30am 15.6 15.6 15.6 9.9 69 0.0 2.6 1019.95 0.0 550 1.8
2/11:00am 14.2 14.2 14.2 9.4 73 0.0 1.7 1020.49 0.0 369 1.3
2/10:30am 12.9 12.9 12.9 9.2 78 0.0 0.9 1021.00 0.0 258 0.9
2/10:00am 11.5 11.5 11.5 8.7 83 0.9 1.7 1021.37 0.0 287 0.8
2/09:30am 10.2 10.2 10.2 8.1 87 0.0 1.7 1021.34 0.0 197 0.5
2/09:00am 9.3 9.3 9.3 7.7 90 0.0 0.9 1021.51 0.2 84 0.0
2/08:30am 8.6 8.6 8.6 7.4 92 0.9 1.7 1021.64 0.2 63 0.0
2/08:00am 8.1 8.1 8.1 7.1 94 0.0 0.9 1021.61 0.2 51 0.0
2/07:29am 7.4 7.4 7.4 6.5 94 0.0 0.9 1021.47 0.2 16 0.0
2/07:00am 6.8 6.8 6.8 5.9 94 0.0 0.9 1021.41 0.2 0 0.0
2/06:30am 6.2 6.2 6.2 5.3 94 0.9 2.6 1021.41 0.2 0 0.0
2/05:59am 6.0 6.0 6.0 5.0 93 0.0 0.0 1021.10 0.2 0 0.0
2/05:30am 6.2 6.2 6.2 5.3 94 0.9 2.6 1021.34 0.2 0 0.0
2/05:00am 6.1 6.1 6.1 5.0 93 0.0 0.9 1021.24 0.2 0 0.0
2/04:30am 6.2 6.2 6.2 5.2 93 0.0 0.9 1021.27 0.2 0 0.0
2/04:00am 6.5 6.5 6.5 5.4 93 0.0 0.9 1021.54 0.2 0 0.0
2/03:30am 6.7 6.7 6.7 5.7 93 0.0 0.0 1021.78 0.2 0 0.0
2/03:00am 7.1 7.1 7.1 5.8 92 0.0 0.9 1022.22 0.2 0 0.0
2/02:30am 7.4 7.4 7.4 6.4 93 0.0 0.9 1022.52 0.0 0 0.0
2/02:00am 7.6 7.6 7.6 6.4 92 0.0 0.0 1022.56 0.0 0 0.0
2/01:30am 7.6 7.6 7.6 6.3 92 0.0 0.9 1022.73 0.0 0 0.0
2/01:00am 7.8 7.8 7.8 6.6 92 0.0 0.9 1022.93 0.0 0 0.0
2/12:30am 8.2 8.2 8.2 6.8 91 0.0 0.9 1023.17 0.0 0 0.0
2/12:00am 8.7 8.7 8.7 7.3 91 0.0 0.9 1023.54 0.0 0 0.0
1/11:30pm 9.0 9.0 9.0 7.6 91 0.0 0.9 1023.78 0.0 0 0.0
1/11:00pm 9.3 9.3 9.3 7.7 90 0.0 0.9 1023.84 0.0 0 0.0
1/10:30pm 9.7 9.7 9.7 7.9 89 0.0 0.0 1024.12 0.0 0 0.0
1/10:00pm 10.2 10.2 10.2 8.3 88 0.0 0.9 1024.18 0.0 0 0.0
1/09:30pm 10.8 10.8 10.8 8.9 88 0.0 0.9 1024.22 0.0 0 0.0
1/09:00pm 11.6 11.6 11.6 9.3 86 0.0 0.0 1024.39 0.0 0 0.0
1/08:30pm 12.3 12.3 12.3 9.9 85 0.0 0.9 1024.45 0.0 0 0.0
1/08:00pm 12.6 12.6 12.6 9.8 83 0.0 0.9 1024.56 0.0 0 1.8
1/07:30pm 13.2 13.2 13.2 10.0 81 0.0 0.9 1024.59 0.0 0 0.0
1/07:00pm 14.2 14.2 14.2 10.2 77 0.0 0.9 1024.25 0.0 0 0.0
1/06:30pm 14.8 14.8 14.8 10.2 74 0.9 3.5 1023.81 0.0 0 0.0
1/06:00pm 15.4 15.4 15.4 10.4 72 0.9 2.6 1023.51 0.0 0 0.0
1/05:30pm 16.4 16.4 16.4 10.7 69 1.7 6.1 1023.37 0.0 11 0.0
1/05:00pm 17.7 17.7 17.7 10.8 64 1.7 4.3 1023.17 0.0 28 0.0
1/04:29pm 19.1 19.1 19.1 10.1 56 0.9 4.3 1023.17 0.0 40 0.0
 
Date/Time
WST
 
Temp
°C
App
Temp
°C
Heat
Index
°C
Wind
Chill
°C
Dew
Point
°C
Rel
Hum
%
 
Dir
 
 
Spd
km/h
Wind
Gust
km/h
 
Spd
kts
 
Gust
kts
Press
MSL
hPa
Rain
Since 9am
mm
 
Solar
W/m2
 
UV
Index


The information provided herein is for informational purposes only and is not guaranteed to be accurate in any way. Do not make any life threatening decisions either directly or indirectly based on the information herein, no responsibility is accepted for any injuries, accidents or other incidents whether fatal or non-fatal, as a direct or indirect result of actions taken based upon the information herein.
Please refer to the Australian Government Bureau of Meteorology for the official weather and forecast.


Copyright © 2020

 



page updated 4/08/2020 4:30:02 PM
cumulus software support forum
powered by  cumulus v1.9.4 (1099)
maintained by  IT ability